createdAt,value
2022-11-09T00:01:04.029Z,98499.44
2022-11-09T00:03:30.868Z,98494.13
2022-11-09T00:05:59.086Z,98502.16
2022-11-09T00:08:27.307Z,98502.41
2022-11-09T00:10:54.053Z,98492.69
2022-11-09T00:13:21.569Z,98491.53
2022-11-09T00:15:49.080Z,98484.13
2022-11-09T00:18:15.895Z,98484.13
2022-11-09T00:20:47.754Z,98485.16
2022-11-09T00:23:16.685Z,98475.28
2022-11-09T00:25:44.467Z,98477.63
2022-11-09T00:28:11.672Z,98465.28
2022-11-09T00:30:38.801Z,98457.38
2022-11-09T00:33:05.543Z,98454.81
2022-11-09T00:35:32.921Z,98439.19
2022-11-09T00:37:59.714Z,98442.63
2022-11-09T00:40:26.660Z,98446.94
2022-11-09T00:42:53.516Z,98443.97
2022-11-09T00:45:20.622Z,98443.00
2022-11-09T00:47:47.350Z,98435.09
2022-11-09T00:50:14.938Z,98443.97
2022-11-09T00:52:42.016Z,98433.13
2022-11-09T00:55:09.278Z,98429.03
2022-11-09T00:57:36.741Z,98439.84
2022-11-09T01:00:04.346Z,98440.34
2022-11-09T01:02:31.339Z,98451.06
2022-11-09T01:04:58.502Z,98437.47
2022-11-09T01:07:25.430Z,98429.22
2022-11-09T01:09:52.445Z,98426.41
2022-11-09T01:12:19.874Z,98430.38
2022-11-09T01:14:46.672Z,98414.09
2022-11-09T01:17:13.339Z,98428.22
2022-11-09T01:19:40.356Z,98439.59
2022-11-09T01:22:07.162Z,98448.97
2022-11-09T01:24:34.226Z,98446.31
2022-11-09T01:27:01.241Z,98449.94
2022-11-09T01:29:29.110Z,98460.63
2022-11-09T01:31:56.165Z,98465.03
2022-11-09T01:34:23.518Z,98466.38
2022-11-09T01:36:54.618Z,98469.31
2022-11-09T01:39:21.870Z,98470.25
2022-11-09T01:41:49.284Z,98482.25
2022-11-09T01:44:20.689Z,98460.44
2022-11-09T01:46:56.135Z,98458.88
2022-11-09T01:49:56.904Z,98456.69
2022-11-09T01:52:30.762Z,98462.44
2022-11-09T01:55:26.722Z,98473.31
2022-11-09T01:58:01.375Z,98472.81
2022-11-09T02:00:29.113Z,98473.16
2022-11-09T02:02:59.550Z,98477.72
2022-11-09T02:05:28.960Z,98474.09
2022-11-09T02:07:56.639Z,98472.50
2022-11-09T02:10:34.419Z,98476.28
2022-11-09T02:13:02.781Z,98472.88
2022-11-09T02:15:30.383Z,98472.75
2022-11-09T02:17:57.296Z,98465.16
2022-11-09T02:20:24.864Z,98474.22
2022-11-09T02:22:51.799Z,98473.38
2022-11-09T02:25:18.961Z,98465.50
2022-11-09T02:27:46.546Z,98474.88
2022-11-09T02:30:14.073Z,98466.97
2022-11-09T02:32:41.486Z,98475.66
2022-11-09T02:35:09.005Z,98480.97
2022-11-09T02:37:40.359Z,98486.72
2022-11-09T02:40:12.255Z,98486.03
2022-11-09T02:42:39.146Z,98493.81
2022-11-09T02:45:06.404Z,98486.72
2022-11-09T02:47:33.260Z,98496.25
2022-11-09T02:50:00.050Z,98492.63
2022-11-09T02:52:26.957Z,98500.03
2022-11-09T02:54:53.968Z,98499.69
2022-11-09T02:57:20.802Z,98505.28
2022-11-09T02:59:47.821Z,98513.03
2022-11-09T03:02:14.520Z,98509.41
2022-11-09T03:04:41.512Z,98515.44
2022-11-09T03:07:08.507Z,98511.84
2022-11-09T03:09:35.379Z,98517.84
2022-11-09T03:12:25.527Z,98518.50
2022-11-09T03:14:52.206Z,98506.97
2022-11-09T03:17:18.959Z,98514.72
2022-11-09T03:19:45.642Z,98507.03
2022-11-09T03:22:12.717Z,98510.66
2022-11-09T03:24:39.547Z,98508.72
2022-11-09T03:27:06.372Z,98490.16
2022-11-09T03:29:33.924Z,98491.19
2022-11-09T03:32:00.942Z,98482.59
2022-11-09T03:34:27.963Z,98488.69
2022-11-09T03:36:54.773Z,98482.78
2022-11-09T03:39:21.762Z,98489.22
2022-11-09T03:41:48.761Z,98476.38
2022-11-09T03:44:15.660Z,98474.59
2022-11-09T03:46:42.529Z,98479.22
2022-11-09T03:49:09.241Z,98471.97
2022-11-09T03:51:36.077Z,98479.22
2022-11-09T03:54:03.102Z,98483.84
2022-11-09T03:56:29.750Z,98482.00
2022-11-09T03:58:56.577Z,98476.09
2022-11-09T04:01:24.127Z,98478.72
2022-11-09T04:03:50.987Z,98480.88
2022-11-09T04:06:17.705Z,98484.50
2022-11-09T04:08:50.938Z,98484.16
2022-11-09T04:11:17.953Z,98467.72
2022-11-09T04:13:44.922Z,98472.63
2022-11-09T04:16:11.818Z,98452.56
2022-11-09T04:18:39.285Z,98454.22
2022-11-09T04:21:06.159Z,98432.50
2022-11-09T04:23:33.498Z,98408.69
2022-11-09T04:26:00.235Z,98408.81
2022-11-09T04:28:27.030Z,98407.19
2022-11-09T04:30:53.694Z,98399.97
2022-11-09T04:33:20.922Z,98400.28
2022-11-09T04:35:47.925Z,98389.13
2022-11-09T04:38:15.610Z,98406.69
2022-11-09T04:40:42.582Z,98397.47
2022-11-09T04:43:12.987Z,98396.34
2022-11-09T04:45:40.714Z,98385.13
2022-11-09T04:48:08.645Z,98387.47
2022-11-09T04:50:35.425Z,98391.06
2022-11-09T04:53:12.278Z,98397.13
2022-11-09T04:55:40.574Z,98404.06
2022-11-09T04:58:07.778Z,98434.13
2022-11-09T05:00:35.181Z,98434.66
2022-11-09T05:03:06.673Z,98437.28
2022-11-09T05:05:34.728Z,98422.28
2022-11-09T05:08:02.054Z,98410.13
2022-11-09T05:10:29.207Z,98414.75
2022-11-09T05:13:04.397Z,98414.41
2022-11-09T05:15:31.446Z,98410.13
2022-11-09T05:17:58.711Z,98422.47
2022-11-09T05:20:26.872Z,98420.19
2022-11-09T05:23:12.673Z,98425.25
2022-11-09T05:25:39.482Z,98446.63
2022-11-09T05:28:06.186Z,98457.31
2022-11-09T05:30:32.884Z,98474.78
2022-11-09T05:32:59.985Z,98466.69
2022-11-09T05:35:26.672Z,98471.66
2022-11-09T05:37:53.610Z,98462.59
2022-11-09T05:40:20.844Z,98459.16
2022-11-09T05:42:48.166Z,98470.31
2022-11-09T05:48:05.334Z,98472.63
2022-11-09T05:50:32.256Z,98473.94
2022-11-09T05:53:00.882Z,98473.25
2022-11-09T05:55:28.218Z,98470.59
2022-11-09T05:57:55.260Z,98474.06
2022-11-09T06:00:23.154Z,98484.44
2022-11-09T06:02:49.953Z,98494.31
2022-11-09T06:05:17.122Z,98483.13
2022-11-09T06:07:45.641Z,98471.28
2022-11-09T06:10:12.374Z,98477.53
2022-11-09T06:12:39.367Z,98479.63
2022-11-09T06:15:06.756Z,98491.69
2022-11-09T06:17:33.422Z,98477.84
2022-11-09T06:20:00.426Z,98479.66
2022-11-09T06:22:28.210Z,98472.59
2022-11-09T06:24:55.054Z,98479.19
2022-11-09T06:27:21.831Z,98472.25
2022-11-09T06:29:48.534Z,98466.34
2022-11-09T06:32:15.426Z,98472.94
2022-11-09T06:34:44.891Z,98452.72
2022-11-09T06:37:11.916Z,98459.63
2022-11-09T06:39:38.872Z,98467.19
2022-11-09T06:42:05.636Z,98463.25
2022-11-09T06:44:33.263Z,98465.72
2022-11-09T06:46:59.953Z,98474.75
2022-11-09T06:49:26.665Z,98476.88
2022-11-09T06:51:53.546Z,98477.38
2022-11-09T06:54:20.317Z,98468.66
2022-11-09T06:56:47.036Z,98470.94
2022-11-09T06:59:14.084Z,98470.78
2022-11-09T07:01:41.090Z,98481.81
2022-11-09T07:04:07.995Z,98471.91
2022-11-09T07:06:34.723Z,98474.06
2022-11-09T07:09:01.961Z,98473.22
2022-11-09T07:11:28.838Z,98476.19
2022-11-09T07:13:57.561Z,98487.38
2022-11-09T07:16:24.885Z,98476.00
2022-11-09T07:18:51.678Z,98481.47
2022-11-09T07:21:18.964Z,98482.41
2022-11-09T07:23:47.851Z,98484.41
2022-11-09T07:26:15.546Z,98479.75
2022-11-09T07:28:42.640Z,98483.06
2022-11-09T07:31:10.043Z,98499.81
2022-11-09T07:33:36.805Z,98502.22
2022-11-09T07:36:05.601Z,98495.66
2022-11-09T07:38:32.510Z,98500.56
2022-11-09T07:41:02.611Z,98499.38
2022-11-09T07:43:31.722Z,98506.28
2022-11-09T07:45:59.394Z,98502.34
2022-11-09T07:48:26.274Z,98495.13
2022-11-09T07:50:53.196Z,98491.06
2022-11-09T07:53:21.739Z,98483.03
2022-11-09T07:55:57.463Z,98492.25
2022-11-09T07:58:25.120Z,98491.28
2022-11-09T08:00:51.849Z,98488.84
2022-11-09T08:03:20.045Z,98487.25
2022-11-09T08:05:46.955Z,98477.91
2022-11-09T08:08:15.784Z,98486.13
2022-11-09T08:10:44.022Z,98484.16
2022-11-09T08:13:13.586Z,98481.03
2022-11-09T08:15:41.867Z,98483.00
2022-11-09T08:18:13.044Z,98494.03
2022-11-09T08:20:39.941Z,98491.41
2022-11-09T08:23:07.046Z,98497.00
2022-11-09T08:25:35.733Z,98493.72
2022-11-09T08:28:03.846Z,98490.56
2022-11-09T08:30:31.338Z,98493.03
2022-11-09T08:32:59.115Z,98505.22
2022-11-09T08:35:27.012Z,98513.13
2022-11-09T08:37:55.222Z,98507.97
2022-11-09T08:40:26.216Z,98506.66
2022-11-09T08:42:53.787Z,98522.94
2022-11-09T08:45:21.637Z,98521.47
2022-11-09T08:47:48.419Z,98520.25
2022-11-09T08:50:16.018Z,98527.00
2022-11-09T08:52:43.464Z,98517.72
2022-11-09T08:55:10.489Z,98527.75
2022-11-09T08:57:37.298Z,98539.59
2022-11-09T09:00:05.467Z,98534.47
2022-11-09T09:02:32.422Z,98526.34
2022-11-09T09:05:00.007Z,98515.34
2022-11-09T09:07:26.764Z,98511.59
2022-11-09T09:09:53.938Z,98508.50
2022-11-09T09:12:20.704Z,98511.75
2022-11-09T09:14:48.346Z,98523.94
2022-11-09T09:17:15.170Z,98527.94
2022-11-09T09:19:45.967Z,98526.19
2022-11-09T09:22:15.740Z,98515.75
2022-11-09T09:24:42.774Z,98522.50
2022-11-09T09:27:09.682Z,98527.41
2022-11-09T09:29:36.475Z,98520.25
2022-11-09T09:32:03.482Z,98527.28
2022-11-09T09:34:30.562Z,98510.72
2022-11-09T09:36:57.442Z,98525.47
2022-11-09T09:39:24.833Z,98516.75
2022-11-09T09:41:56.665Z,98522.41
2022-11-09T09:44:30.124Z,98521.25
2022-11-09T09:47:20.363Z,98532.31
2022-11-09T09:49:56.755Z,98531.50
2022-11-09T09:52:42.013Z,98530.91
2022-11-09T09:55:39.525Z,98532.41
2022-11-09T09:58:24.068Z,98533.97
2022-11-09T10:00:55.255Z,98543.50
2022-11-09T10:03:22.059Z,98540.03
2022-11-09T10:06:05.520Z,98546.59
2022-11-09T10:08:54.654Z,98542.91
2022-11-09T10:12:13.848Z,98540.31
2022-11-09T10:15:07.188Z,98539.91
2022-11-09T10:18:15.047Z,98520.41
2022-11-09T10:21:34.224Z,98533.53
2022-11-09T10:25:18.506Z,98537.56
2022-11-09T10:27:48.831Z,98535.91
2022-11-09T10:30:18.402Z,98537.28
2022-11-09T10:32:51.158Z,98538.81
2022-11-09T10:35:24.850Z,98538.63
2022-11-09T10:37:52.855Z,98526.06
2022-11-09T10:40:52.168Z,98545.94
2022-11-09T10:43:19.107Z,98549.56
2022-11-09T10:45:46.387Z,98538.16
2022-11-09T10:48:14.492Z,98540.34
2022-11-09T10:50:54.659Z,98544.84
2022-11-09T10:53:32.643Z,98550.88
2022-11-09T10:56:33.001Z,98540.72
2022-11-09T10:59:04.146Z,98538.72
2022-11-09T11:01:37.952Z,98539.09
2022-11-09T11:04:21.312Z,98539.91
2022-11-09T11:06:48.009Z,98539.19
2022-11-09T11:09:19.027Z,98542.13
2022-11-09T11:11:45.758Z,98545.31
2022-11-09T11:14:22.796Z,98546.03
2022-11-09T11:16:52.704Z,98534.63
2022-11-09T11:19:32.874Z,98535.63
2022-11-09T11:22:32.441Z,98536.19
2022-11-09T11:25:01.651Z,98522.22
2022-11-09T11:28:00.926Z,98536.25
2022-11-09T11:30:35.207Z,98534.78
2022-11-09T11:33:03.035Z,98536.50
2022-11-09T11:35:50.832Z,98538.81
2022-11-09T11:38:52.148Z,98529.88
2022-11-09T11:41:48.533Z,98526.09
2022-11-09T11:44:49.160Z,98527.41
2022-11-09T11:48:10.830Z,98532.84
2022-11-09T11:51:14.091Z,98531.16
2022-11-09T11:54:14.501Z,98529.69
2022-11-09T11:57:31.305Z,98522.28
2022-11-09T12:00:11.248Z,98520.00
2022-11-09T12:03:32.513Z,98524.13
2022-11-09T12:06:12.435Z,98523.56
2022-11-09T12:09:03.157Z,98513.25
2022-11-09T12:18:29.546Z,98519.28
2022-11-09T12:21:16.882Z,98522.22
2022-11-09T12:24:25.215Z,98524.38
2022-11-09T12:27:30.533Z,98516.72
2022-11-09T12:30:05.782Z,98521.53
2022-11-09T12:32:59.334Z,98517.72
2022-11-09T12:35:39.923Z,98518.78
2022-11-09T12:38:23.195Z,98518.72
2022-11-09T12:41:11.233Z,98519.56
2022-11-09T12:43:58.733Z,98520.75
2022-11-09T12:46:31.577Z,98523.28
2022-11-09T12:49:02.443Z,98529.31
2022-11-09T12:51:29.234Z,98524.66
2022-11-09T12:53:56.870Z,98529.47
2022-11-09T12:56:27.880Z,98517.28
2022-11-09T12:59:48.311Z,98523.75
2022-11-09T13:02:34.397Z,98523.38
2022-11-09T13:05:04.218Z,98521.53
2022-11-09T13:07:52.158Z,98517.09
2022-11-09T13:10:39.701Z,98522.44
2022-11-09T13:13:32.923Z,98525.38
2022-11-09T13:16:33.580Z,98520.19
2022-11-09T13:19:03.256Z,98519.38
2022-11-09T13:21:34.795Z,98518.22
2022-11-09T13:24:50.544Z,98516.66
2022-11-09T13:27:42.129Z,98524.44
2022-11-09T13:30:45.097Z,98516.75
2022-11-09T13:33:24.103Z,98521.66
2022-11-09T13:36:16.021Z,98525.72
2022-11-09T13:38:43.472Z,98523.34
2022-11-09T13:41:51.262Z,98523.53
2022-11-09T13:44:27.261Z,98535.66
2022-11-09T13:46:54.612Z,98532.19
2022-11-09T13:49:38.495Z,98536.16
2022-11-09T13:52:05.254Z,98530.16
2022-11-09T13:54:34.282Z,98536.00
2022-11-09T13:57:06.697Z,98548.75
2022-11-09T13:59:47.129Z,98546.84
2022-11-09T14:02:26.064Z,98544.47
2022-11-09T14:04:54.380Z,98546.50
2022-11-09T14:07:26.514Z,98549.22
2022-11-09T14:10:22.311Z,98549.13
2022-11-09T14:13:35.596Z,98549.22
2022-11-09T14:16:40.040Z,98545.41
2022-11-09T14:22:35.323Z,98538.84
2022-11-09T14:25:19.722Z,98553.69
2022-11-09T14:27:57.144Z,98554.59
2022-11-09T14:30:29.269Z,98563.31
2022-11-09T14:32:57.869Z,98564.66
2022-11-09T14:35:35.623Z,98566.84
2022-11-09T14:38:15.616Z,98566.38
2022-11-09T14:40:46.683Z,98565.47
2022-11-09T14:43:29.428Z,98568.25
2022-11-09T14:46:01.482Z,98569.44
2022-11-09T14:48:29.647Z,98568.41
2022-11-09T14:51:00.035Z,98571.59
2022-11-09T14:53:32.764Z,98571.09
2022-11-09T14:56:05.211Z,98572.19
2022-11-09T14:58:34.380Z,98559.56
2022-11-09T15:01:24.281Z,98577.75
2022-11-09T15:04:14.429Z,98579.84
2022-11-09T15:06:46.788Z,98577.66
2022-11-09T15:09:28.337Z,98576.44
2022-11-09T15:11:55.363Z,98593.13
2022-11-09T15:14:31.615Z,98592.16
2022-11-09T15:17:23.100Z,98595.59
2022-11-09T15:19:58.939Z,98586.63
2022-11-09T15:22:50.706Z,98593.63
2022-11-09T15:25:20.659Z,98598.91
2022-11-09T15:28:24.640Z,98600.09
2022-11-09T15:31:16.085Z,98599.63
2022-11-09T15:33:53.730Z,98602.63
2022-11-09T15:36:34.147Z,98604.09
2022-11-09T15:39:09.490Z,98603.63
2022-11-09T15:41:37.269Z,98603.63
2022-11-09T15:44:05.956Z,98610.56
2022-11-09T15:46:37.043Z,98610.78
2022-11-09T15:49:17.019Z,98597.03
2022-11-09T15:51:44.989Z,98603.66
2022-11-09T15:54:12.159Z,98603.28
2022-11-09T15:56:38.930Z,98608.56
2022-11-09T15:59:06.098Z,98609.91
2022-11-09T16:01:33.145Z,98620.31
2022-11-09T16:04:00.442Z,98610.25
2022-11-09T16:06:27.731Z,98608.59
2022-11-09T16:08:54.829Z,98620.72
2022-11-09T16:11:21.600Z,98624.06
2022-11-09T16:13:48.390Z,98615.72
2022-11-09T16:16:15.943Z,98621.66
2022-11-09T16:18:43.562Z,98619.34
2022-11-09T16:21:16.212Z,98623.34
2022-11-09T16:23:44.630Z,98627.34
2022-11-09T16:26:14.082Z,98622.38
2022-11-09T16:28:41.294Z,98627.75
2022-11-09T16:31:08.456Z,98623.78
2022-11-09T16:33:35.807Z,98635.69
2022-11-09T16:36:06.536Z,98636.66
2022-11-09T16:38:39.146Z,98647.88
2022-11-09T16:41:06.270Z,98645.09
2022-11-09T16:43:33.277Z,98661.44
2022-11-09T16:46:00.256Z,98657.16
2022-11-09T16:48:27.022Z,98668.19
2022-11-09T16:50:53.915Z,98664.91
2022-11-09T16:53:26.526Z,98667.75
2022-11-09T16:55:53.989Z,98658.47
2022-11-09T16:58:21.568Z,98676.63
2022-11-09T17:01:11.667Z,98676.31
2022-11-09T17:03:37.325Z,98685.88
2022-11-09T17:06:04.614Z,98688.03
2022-11-09T17:08:32.081Z,98694.84
2022-11-09T17:10:58.848Z,98681.59
2022-11-09T17:13:25.550Z,98681.81
2022-11-09T17:15:53.556Z,98692.06
2022-11-09T17:18:20.650Z,98694.00
2022-11-09T17:20:49.892Z,98684.13
2022-11-09T17:23:18.964Z,98696.22
2022-11-09T17:25:57.136Z,98693.94
2022-11-09T17:28:24.641Z,98690.13
2022-11-09T17:30:51.678Z,98697.22
2022-11-09T17:33:18.337Z,98705.78
2022-11-09T17:35:45.437Z,98703.69
2022-11-09T17:38:12.792Z,98718.66
2022-11-09T17:40:39.627Z,98721.81
2022-11-09T17:43:06.573Z,98728.56
2022-11-09T17:45:35.104Z,98725.25
2022-11-09T17:48:02.537Z,98741.94
2022-11-09T17:50:29.298Z,98731.19
2022-11-09T17:52:56.134Z,98741.75
2022-11-09T17:55:23.592Z,98740.41
2022-11-09T17:57:50.803Z,98739.63
2022-11-09T18:00:18.886Z,98738.28
2022-11-09T18:02:45.834Z,98748.84
2022-11-09T18:05:14.174Z,98751.97
2022-11-09T18:07:40.848Z,98747.84
2022-11-09T18:10:08.093Z,98758.88
2022-11-09T18:12:34.741Z,98757.31
2022-11-09T18:15:02.301Z,98767.03
2022-11-09T18:17:29.265Z,98752.50
2022-11-09T18:19:56.017Z,98756.97
2022-11-09T18:22:22.753Z,98758.47
2022-11-09T18:24:49.437Z,98761.09
2022-11-09T18:27:16.444Z,98766.66
2022-11-09T18:29:43.516Z,98763.69
2022-11-09T18:32:13.794Z,98772.28
2022-11-09T18:34:40.916Z,98772.59
2022-11-09T18:37:07.613Z,98772.28
2022-11-09T18:39:34.539Z,98770.44
2022-11-09T18:42:02.147Z,98775.53
2022-11-09T18:44:29.161Z,98773.53
2022-11-09T18:47:00.699Z,98770.69
2022-11-09T18:49:30.652Z,98768.91
2022-11-09T18:51:59.368Z,98773.47
2022-11-09T18:54:26.369Z,98781.72
2022-11-09T18:56:53.732Z,98788.56
2022-11-09T18:59:20.541Z,98787.56
2022-11-09T19:01:47.206Z,98796.47
2022-11-09T19:04:19.347Z,98792.53
2022-11-09T19:06:46.941Z,98800.44
2022-11-09T19:09:30.242Z,98799.63
2022-11-09T19:11:58.270Z,98806.03
2022-11-09T19:14:25.948Z,98801.06
2022-11-09T19:16:53.175Z,98807.00
2022-11-09T19:19:20.544Z,98802.72
2022-11-09T19:21:57.070Z,98807.63
2022-11-09T19:24:25.725Z,98812.38
2022-11-09T19:26:54.223Z,98814.50
2022-11-09T19:29:21.789Z,98807.91
2022-11-09T19:31:48.980Z,98813.50
2022-11-09T19:34:18.306Z,98829.31
2022-11-09T19:36:46.221Z,98819.56
2022-11-09T19:39:16.690Z,98824.53
2022-11-09T19:41:43.474Z,98834.13
2022-11-09T19:44:12.984Z,98839.91
2022-11-09T19:46:40.181Z,98839.91
2022-11-09T19:49:07.687Z,98836.28
2022-11-09T19:51:35.071Z,98842.91
2022-11-09T19:54:03.204Z,98848.53
2022-11-09T19:56:31.767Z,98856.59
2022-11-09T19:59:00.350Z,98849.69
2022-11-09T20:01:28.000Z,98855.16
2022-11-09T20:03:56.849Z,98846.56
2022-11-09T20:06:24.405Z,98856.66
2022-11-09T20:08:52.379Z,98855.81
2022-11-09T20:11:39.958Z,98854.03
2022-11-09T20:14:08.033Z,98862.91
2022-11-09T20:16:35.529Z,98861.09
2022-11-09T20:19:03.819Z,98871.69
2022-11-09T20:21:30.964Z,98876.91
2022-11-09T20:23:58.502Z,98884.13
2022-11-09T20:26:25.244Z,98882.63
2022-11-09T20:28:53.612Z,98889.63
2022-11-09T20:31:21.376Z,98895.03
2022-11-09T20:33:48.798Z,98903.47
2022-11-09T20:36:16.076Z,98906.09
2022-11-09T20:38:43.019Z,98898.53
2022-11-09T20:41:11.335Z,98918.63
2022-11-09T20:43:38.759Z,98913.69
2022-11-09T20:46:14.885Z,98918.97
2022-11-09T20:48:57.597Z,98920.47
2022-11-09T20:51:25.002Z,98915.78
2022-11-09T20:53:51.958Z,98925.66
2022-11-09T20:56:20.123Z,98928.91
2022-11-09T20:58:47.467Z,98929.91
2022-11-09T21:01:20.192Z,98922.66
2022-11-09T21:03:47.845Z,98932.81
2022-11-09T21:06:15.683Z,98935.47
2022-11-09T21:08:50.643Z,98938.94
2022-11-09T21:11:19.087Z,98929.56
2022-11-09T21:13:50.489Z,98926.38
2022-11-09T21:16:18.314Z,98932.13
2022-11-09T21:18:45.214Z,98939.97
2022-11-09T21:21:23.286Z,98940.94
2022-11-09T21:24:08.750Z,98951.34
2022-11-09T21:26:54.129Z,98954.38
2022-11-09T21:29:42.558Z,98964.25
2022-11-09T21:32:11.369Z,98960.56
2022-11-09T21:34:38.459Z,98964.19
2022-11-09T21:37:05.937Z,98973.06
2022-11-09T21:39:32.823Z,98986.00
2022-11-09T21:42:00.040Z,98973.84
2022-11-09T21:44:31.261Z,98981.25
2022-11-09T21:46:59.021Z,98989.41
2022-11-09T21:49:25.733Z,98986.13
2022-11-09T21:51:52.617Z,98995.16
2022-11-09T21:54:20.182Z,98995.91
2022-11-09T21:56:51.196Z,98998.50
2022-11-09T21:59:18.007Z,98999.63
2022-11-09T22:01:45.581Z,98997.28
2022-11-09T22:04:12.431Z,99007.28
2022-11-09T22:06:40.923Z,99009.09
2022-11-09T22:09:12.955Z,99005.53
2022-11-09T22:11:58.558Z,99023.44
2022-11-09T22:14:43.896Z,99016.59
2022-11-09T22:17:10.700Z,99024.06
2022-11-09T22:19:57.195Z,99028.03
2022-11-09T22:22:24.794Z,99028.84
2022-11-09T22:24:51.478Z,99023.72
2022-11-09T22:27:18.158Z,99027.59
2022-11-09T22:29:45.305Z,99029.84
2022-11-09T22:32:12.169Z,99040.06
2022-11-09T22:34:39.081Z,99038.19
2022-11-09T22:37:06.208Z,99048.16
2022-11-09T22:39:33.016Z,99050.72
2022-11-09T22:42:00.162Z,99061.09
2022-11-09T22:44:26.946Z,99061.38
2022-11-09T22:46:53.846Z,99069.13
2022-11-09T22:49:20.567Z,99076.56
2022-11-09T22:51:47.380Z,99070.78
2022-11-09T22:54:14.211Z,99077.03
2022-11-09T22:56:41.305Z,99076.63
2022-11-09T22:59:08.271Z,99074.88
2022-11-09T23:01:35.017Z,99084.19
2022-11-09T23:04:02.336Z,99080.91
2022-11-09T23:06:29.473Z,99090.88
2022-11-09T23:08:56.530Z,99093.09
2022-11-09T23:11:24.090Z,99101.84
2022-11-09T23:13:55.176Z,99090.94
2022-11-09T23:16:23.363Z,99096.91
2022-11-09T23:18:55.998Z,99097.38
2022-11-09T23:21:31.146Z,99099.06
2022-11-09T23:24:00.876Z,99107.91
2022-11-09T23:26:28.435Z,99108.88
2022-11-09T23:28:55.565Z,99113.72
2022-11-09T23:31:26.130Z,99114.25
2022-11-09T23:33:54.784Z,99110.16
2022-11-09T23:36:26.148Z,99119.00
2022-11-09T23:38:53.271Z,99126.19
2022-11-09T23:41:20.423Z,99123.00
2022-11-09T23:43:49.721Z,99127.16
2022-11-09T23:46:17.562Z,99123.44
2022-11-09T23:48:44.566Z,99124.53
2022-11-09T23:51:12.381Z,99125.66
2022-11-09T23:53:39.586Z,99133.91
2022-11-09T23:56:11.226Z,99130.31
2022-11-09T23:58:38.487Z,99129.63
